sensor_id;sensor_type;location;lat;lon;timestamp;P1;P2;P0
69350;PMS7003;57106;51.446;-2.606;2022-12-07T00:02:22;22;20;
69350;PMS7003;57106;51.446;-2.606;2022-12-07T00:04:48;21;18;
69350;PMS7003;57106;51.446;-2.606;2022-12-07T00:07:13;22;20;
69350;PMS7003;57106;51.446;-2.606;2022-12-07T00:09:38;20;18;
69350;PMS7003;57106;51.446;-2.606;2022-12-07T00:12:03;19;18;
69350;PMS7003;57106;51.446;-2.606;2022-12-07T00:14:28;19;18;
69350;PMS7003;57106;51.446;-2.606;2022-12-07T00:16:53;21;18;
69350;PMS7003;57106;51.446;-2.606;2022-12-07T00:19:19;20;19;
69350;PMS7003;57106;51.446;-2.606;2022-12-07T00:21:45;22;20;
69350;PMS7003;57106;51.446;-2.606;2022-12-07T00:24:11;18;17;
69350;PMS7003;57106;51.446;-2.606;2022-12-07T00:26:37;19;16;
69350;PMS7003;57106;51.446;-2.606;2022-12-07T00:29:03;20;18;
69350;PMS7003;57106;51.446;-2.606;2022-12-07T00:31:27;18;17;
69350;PMS7003;57106;51.446;-2.606;2022-12-07T00:33:52;19;18;
69350;PMS7003;57106;51.446;-2.606;2022-12-07T00:36:19;20;17;
69350;PMS7003;57106;51.446;-2.606;2022-12-07T00:38:44;19;18;
69350;PMS7003;57106;51.446;-2.606;2022-12-07T00:41:10;24;16;
69350;PMS7003;57106;51.446;-2.606;2022-12-07T00:43:35;20;19;
69350;PMS7003;57106;51.446;-2.606;2022-12-07T00:46:02;25;21;
69350;PMS7003;57106;51.446;-2.606;2022-12-07T00:48:26;20;20;
69350;PMS7003;57106;51.446;-2.606;2022-12-07T00:50:51;25;20;
69350;PMS7003;57106;51.446;-2.606;2022-12-07T00:53:17;22;20;
69350;PMS7003;57106;51.446;-2.606;2022-12-07T00:55:42;21;18;
69350;PMS7003;57106;51.446;-2.606;2022-12-07T00:58:07;18;18;
69350;PMS7003;57106;51.446;-2.606;2022-12-07T01:00:33;18;17;
69350;PMS7003;57106;51.446;-2.606;2022-12-07T01:02:59;18;17;
69350;PMS7003;57106;51.446;-2.606;2022-12-07T01:05:24;19;18;
69350;PMS7003;57106;51.446;-2.606;2022-12-07T01:07:50;25;21;
69350;PMS7003;57106;51.446;-2.606;2022-12-07T01:10:16;20;18;
69350;PMS7003;57106;51.446;-2.606;2022-12-07T01:12:41;22;20;
69350;PMS7003;57106;51.446;-2.606;2022-12-07T01:15:07;18;18;
69350;PMS7003;57106;51.446;-2.606;2022-12-07T01:17:33;19;17;
69350;PMS7003;57106;51.446;-2.606;2022-12-07T01:19:58;22;17;
69350;PMS7003;57106;51.446;-2.606;2022-12-07T01:22:24;27;23;
69350;PMS7003;57106;51.446;-2.606;2022-12-07T01:24:49;25;19;
69350;PMS7003;57106;51.446;-2.606;2022-12-07T01:27:15;24;20;
69350;PMS7003;57106;51.446;-2.606;2022-12-07T01:29:40;24;19;
69350;PMS7003;57106;51.446;-2.606;2022-12-07T01:32:06;18;17;
69350;PMS7003;57106;51.446;-2.606;2022-12-07T01:34:32;26;20;
69350;PMS7003;57106;51.446;-2.606;2022-12-07T01:36:57;18;16;
69350;PMS7003;57106;51.446;-2.606;2022-12-07T01:39:23;20;17;
69350;PMS7003;57106;51.446;-2.606;2022-12-07T01:41:49;24;20;
69350;PMS7003;57106;51.446;-2.606;2022-12-07T01:44:16;20;17;
69350;PMS7003;57106;51.446;-2.606;2022-12-07T01:46:40;18;18;
69350;PMS7003;57106;51.446;-2.606;2022-12-07T01:49:06;18;18;
69350;PMS7003;57106;51.446;-2.606;2022-12-07T01:51:31;19;18;
69350;PMS7003;57106;51.446;-2.606;2022-12-07T01:53:57;19;19;
69350;PMS7003;57106;51.446;-2.606;2022-12-07T01:56:23;26;25;
69350;PMS7003;57106;51.446;-2.606;2022-12-07T01:58:48;24;20;
69350;PMS7003;57106;51.446;-2.606;2022-12-07T02:01:13;21;17;
69350;PMS7003;57106;51.446;-2.606;2022-12-07T02:03:40;22;22;
69350;PMS7003;57106;51.446;-2.606;2022-12-07T02:06:05;24;23;
69350;PMS7003;57106;51.446;-2.606;2022-12-07T02:08:31;21;18;
69350;PMS7003;57106;51.446;-2.606;2022-12-07T02:10:56;25;22;
69350;PMS7003;57106;51.446;-2.606;2022-12-07T02:13:23;23;22;
69350;PMS7003;57106;51.446;-2.606;2022-12-07T02:15:53;23;19;
69350;PMS7003;57106;51.446;-2.606;2022-12-07T02:18:14;22;21;
69350;PMS7003;57106;51.446;-2.606;2022-12-07T02:20:39;23;22;
69350;PMS7003;57106;51.446;-2.606;2022-12-07T02:25:32;27;23;
69350;PMS7003;57106;51.446;-2.606;2022-12-07T02:27:56;22;19;
69350;PMS7003;57106;51.446;-2.606;2022-12-07T02:30:20;22;20;
69350;PMS7003;57106;51.446;-2.606;2022-12-07T02:32:48;24;22;
69350;PMS7003;57106;51.446;-2.606;2022-12-07T02:35:18;19;18;
69350;PMS7003;57106;51.446;-2.606;2022-12-07T02:37:38;17;17;
69350;PMS7003;57106;51.446;-2.606;2022-12-07T02:40:04;21;21;
69350;PMS7003;57106;51.446;-2.606;2022-12-07T02:42:30;26;24;
69350;PMS7003;57106;51.446;-2.606;2022-12-07T02:44:53;24;22;
69350;PMS7003;57106;51.446;-2.606;2022-12-07T02:47:19;24;23;
69350;PMS7003;57106;51.446;-2.606;2022-12-07T02:49:45;24;19;
69350;PMS7003;57106;51.446;-2.606;2022-12-07T02:52:11;21;19;
69350;PMS7003;57106;51.446;-2.606;2022-12-07T02:57:04;22;21;
69350;PMS7003;57106;51.446;-2.606;2022-12-07T02:59:30;25;22;
69350;PMS7003;57106;51.446;-2.606;2022-12-07T03:01:55;28;21;
69350;PMS7003;57106;51.446;-2.606;2022-12-07T03:04:22;18;18;
69350;PMS7003;57106;51.446;-2.606;2022-12-07T03:06:45;24;21;
69350;PMS7003;57106;51.446;-2.606;2022-12-07T03:09:11;21;19;
69350;PMS7003;57106;51.446;-2.606;2022-12-07T03:11:36;22;22;
69350;PMS7003;57106;51.446;-2.606;2022-12-07T03:14:01;16;16;
69350;PMS7003;57106;51.446;-2.606;2022-12-07T03:16:27;21;18;
69350;PMS7003;57106;51.446;-2.606;2022-12-07T03:18:52;17;17;
69350;PMS7003;57106;51.446;-2.606;2022-12-07T03:21:18;21;18;
69350;PMS7003;57106;51.446;-2.606;2022-12-07T03:23:43;22;22;
69350;PMS7003;57106;51.446;-2.606;2022-12-07T03:26:08;23;23;
69350;PMS7003;57106;51.446;-2.606;2022-12-07T03:28:35;22;22;
69350;PMS7003;57106;51.446;-2.606;2022-12-07T03:31:00;23;22;
69350;PMS7003;57106;51.446;-2.606;2022-12-07T03:33:26;22;21;
69350;PMS7003;57106;51.446;-2.606;2022-12-07T03:35:51;20;17;
69350;PMS7003;57106;51.446;-2.606;2022-12-07T03:38:17;19;18;
69350;PMS7003;57106;51.446;-2.606;2022-12-07T03:40:43;23;21;
69350;PMS7003;57106;51.446;-2.606;2022-12-07T03:43:06;25;22;
69350;PMS7003;57106;51.446;-2.606;2022-12-07T03:45:32;25;23;
69350;PMS7003;57106;51.446;-2.606;2022-12-07T03:47:59;22;19;
69350;PMS7003;57106;51.446;-2.606;2022-12-07T03:50:25;27;23;
69350;PMS7003;57106;51.446;-2.606;2022-12-07T03:52:51;21;18;
69350;PMS7003;57106;51.446;-2.606;2022-12-07T03:55:14;27;22;
69350;PMS7003;57106;51.446;-2.606;2022-12-07T03:57:40;27;23;
69350;PMS7003;57106;51.446;-2.606;2022-12-07T04:00:06;20;20;
69350;PMS7003;57106;51.446;-2.606;2022-12-07T04:02:31;22;18;
69350;PMS7003;57106;51.446;-2.606;2022-12-07T04:04:57;23;19;
69350;PMS7003;57106;51.446;-2.606;2022-12-07T04:07:22;20;18;
69350;PMS7003;57106;51.446;-2.606;2022-12-07T04:17:05;22;18;
69350;PMS7003;57106;51.446;-2.606;2022-12-07T04:19:30;18;16;
69350;PMS7003;57106;51.446;-2.606;2022-12-07T04:21:56;23;20;
69350;PMS7003;57106;51.446;-2.606;2022-12-07T04:24:21;20;18;
69350;PMS7003;57106;51.446;-2.606;2022-12-07T04:26:46;20;16;
69350;PMS7003;57106;51.446;-2.606;2022-12-07T04:29:12;18;15;
69350;PMS7003;57106;51.446;-2.606;2022-12-07T04:31:38;21;16;
69350;PMS7003;57106;51.446;-2.606;2022-12-07T04:34:04;15;14;
69350;PMS7003;57106;51.446;-2.606;2022-12-07T04:36:30;19;16;
69350;PMS7003;57106;51.446;-2.606;2022-12-07T04:38:55;21;16;
69350;PMS7003;57106;51.446;-2.606;2022-12-07T04:41:21;21;19;
69350;PMS7003;57106;51.446;-2.606;2022-12-07T04:43:46;23;20;
69350;PMS7003;57106;51.446;-2.606;2022-12-07T04:46:12;23;19;
69350;PMS7003;57106;51.446;-2.606;2022-12-07T04:48:37;20;16;
69350;PMS7003;57106;51.446;-2.606;2022-12-07T04:51:03;20;15;
69350;PMS7003;57106;51.446;-2.606;2022-12-07T04:53:28;17;16;
69350;PMS7003;57106;51.446;-2.606;2022-12-07T04:55:54;22;17;
69350;PMS7003;57106;51.446;-2.606;2022-12-07T04:58:19;23;18;
69350;PMS7003;57106;51.446;-2.606;2022-12-07T05:00:44;18;16;
69350;PMS7003;57106;51.446;-2.606;2022-12-07T05:03:10;15;15;
69350;PMS7003;57106;51.446;-2.606;2022-12-07T05:05:39;22;18;
69350;PMS7003;57106;51.446;-2.606;2022-12-07T05:08:02;23;17;
69350;PMS7003;57106;51.446;-2.606;2022-12-07T05:10:28;20;16;
69350;PMS7003;57106;51.446;-2.606;2022-12-07T05:12:53;19;17;
69350;PMS7003;57106;51.446;-2.606;2022-12-07T05:15:19;17;14;
69350;PMS7003;57106;51.446;-2.606;2022-12-07T05:17:45;17;17;
69350;PMS7003;57106;51.446;-2.606;2022-12-07T05:20:11;21;18;
69350;PMS7003;57106;51.446;-2.606;2022-12-07T05:22:36;18;17;
69350;PMS7003;57106;51.446;-2.606;2022-12-07T05:25:02;18;17;
69350;PMS7003;57106;51.446;-2.606;2022-12-07T05:27:27;20;16;
69350;PMS7003;57106;51.446;-2.606;2022-12-07T05:29:53;22;18;
69350;PMS7003;57106;51.446;-2.606;2022-12-07T05:32:19;15;15;
69350;PMS7003;57106;51.446;-2.606;2022-12-07T05:34:44;20;17;
69350;PMS7003;57106;51.446;-2.606;2022-12-07T05:37:10;15;15;
69350;PMS7003;57106;51.446;-2.606;2022-12-07T05:39:36;19;19;
69350;PMS7003;57106;51.446;-2.606;2022-12-07T05:42:01;18;18;
69350;PMS7003;57106;51.446;-2.606;2022-12-07T05:44:27;18;17;
69350;PMS7003;57106;51.446;-2.606;2022-12-07T05:46:52;18;16;
69350;PMS7003;57106;51.446;-2.606;2022-12-07T05:49:19;18;17;
69350;PMS7003;57106;51.446;-2.606;2022-12-07T05:51:44;18;16;
69350;PMS7003;57106;51.446;-2.606;2022-12-07T05:54:09;22;20;
69350;PMS7003;57106;51.446;-2.606;2022-12-07T05:56:34;21;20;
69350;PMS7003;57106;51.446;-2.606;2022-12-07T05:59:00;18;17;
69350;PMS7003;57106;51.446;-2.606;2022-12-07T06:01:26;20;20;
69350;PMS7003;57106;51.446;-2.606;2022-12-07T06:03:51;21;18;
69350;PMS7003;57106;51.446;-2.606;2022-12-07T06:06:16;20;17;
69350;PMS7003;57106;51.446;-2.606;2022-12-07T06:08:42;17;16;
69350;PMS7003;57106;51.446;-2.606;2022-12-07T06:11:08;23;20;
69350;PMS7003;57106;51.446;-2.606;2022-12-07T06:13:34;17;16;
69350;PMS7003;57106;51.446;-2.606;2022-12-07T06:15:59;16;15;
69350;PMS7003;57106;51.446;-2.606;2022-12-07T06:18:25;17;16;
69350;PMS7003;57106;51.446;-2.606;2022-12-07T06:20:51;18;16;
69350;PMS7003;57106;51.446;-2.606;2022-12-07T06:23:16;21;17;
69350;PMS7003;57106;51.446;-2.606;2022-12-07T06:25:45;18;16;
69350;PMS7003;57106;51.446;-2.606;2022-12-07T06:28:08;18;17;
69350;PMS7003;57106;51.446;-2.606;2022-12-07T06:30:34;19;15;
69350;PMS7003;57106;51.446;-2.606;2022-12-07T06:32:59;17;16;
69350;PMS7003;57106;51.446;-2.606;2022-12-07T06:35:25;21;20;
69350;PMS7003;57106;51.446;-2.606;2022-12-07T06:37:50;16;15;
69350;PMS7003;57106;51.446;-2.606;2022-12-07T06:40:15;22;18;
69350;PMS7003;57106;51.446;-2.606;2022-12-07T06:42:41;20;20;
69350;PMS7003;57106;51.446;-2.606;2022-12-07T06:45:07;19;16;
69350;PMS7003;57106;51.446;-2.606;2022-12-07T06:47:32;17;17;
69350;PMS7003;57106;51.446;-2.606;2022-12-07T06:49:57;25;21;
69350;PMS7003;57106;51.446;-2.606;2022-12-07T06:52:23;21;17;
69350;PMS7003;57106;51.446;-2.606;2022-12-07T06:54:50;20;17;
69350;PMS7003;57106;51.446;-2.606;2022-12-07T06:57:14;23;22;
69350;PMS7003;57106;51.446;-2.606;2022-12-07T06:59:39;26;21;
69350;PMS7003;57106;51.446;-2.606;2022-12-07T07:02:05;21;17;
69350;PMS7003;57106;51.446;-2.606;2022-12-07T07:04:31;27;25;
69350;PMS7003;57106;51.446;-2.606;2022-12-07T07:06:57;28;22;
69350;PMS7003;57106;51.446;-2.606;2022-12-07T07:09:22;29;26;
69350;PMS7003;57106;51.446;-2.606;2022-12-07T07:11:47;28;23;
69350;PMS7003;57106;51.446;-2.606;2022-12-07T07:14:13;25;21;
69350;PMS7003;57106;51.446;-2.606;2022-12-07T07:16:38;22;22;
69350;PMS7003;57106;51.446;-2.606;2022-12-07T07:19:04;26;25;
69350;PMS7003;57106;51.446;-2.606;2022-12-07T07:21:29;23;21;
69350;PMS7003;57106;51.446;-2.606;2022-12-07T07:23:55;27;21;
69350;PMS7003;57106;51.446;-2.606;2022-12-07T07:26:20;25;19;
69350;PMS7003;57106;51.446;-2.606;2022-12-07T07:28:46;31;23;
69350;PMS7003;57106;51.446;-2.606;2022-12-07T07:31:11;29;26;
69350;PMS7003;57106;51.446;-2.606;2022-12-07T07:33:36;22;21;
69350;PMS7003;57106;51.446;-2.606;2022-12-07T07:36:02;22;20;
69350;PMS7003;57106;51.446;-2.606;2022-12-07T07:38:27;27;23;
69350;PMS7003;57106;51.446;-2.606;2022-12-07T07:40:53;21;18;
69350;PMS7003;57106;51.446;-2.606;2022-12-07T07:45:44;21;20;
69350;PMS7003;57106;51.446;-2.606;2022-12-07T07:48:09;20;18;
69350;PMS7003;57106;51.446;-2.606;2022-12-07T07:50:35;19;19;
69350;PMS7003;57106;51.446;-2.606;2022-12-07T07:53:01;22;20;
69350;PMS7003;57106;51.446;-2.606;2022-12-07T08:00:19;21;21;
69350;PMS7003;57106;51.446;-2.606;2022-12-07T08:02:44;22;18;
69350;PMS7003;57106;51.446;-2.606;2022-12-07T08:05:10;20;19;
69350;PMS7003;57106;51.446;-2.606;2022-12-07T08:48:51;26;25;
69350;PMS7003;57106;51.446;-2.606;2022-12-07T08:51:15;32;27;
69350;PMS7003;57106;51.446;-2.606;2022-12-07T08:56:06;31;31;
69350;PMS7003;57106;51.446;-2.606;2022-12-07T09:00:56;31;27;
69350;PMS7003;57106;51.446;-2.606;2022-12-07T09:03:22;29;25;
69350;PMS7003;57106;51.446;-2.606;2022-12-07T09:05:48;27;26;
69350;PMS7003;57106;51.446;-2.606;2022-12-07T09:08:13;29;27;
69350;PMS7003;57106;51.446;-2.606;2022-12-07T09:10:39;30;23;
69350;PMS7003;57106;51.446;-2.606;2022-12-07T09:13:05;27;24;
69350;PMS7003;57106;51.446;-2.606;2022-12-07T09:15:30;28;27;
69350;PMS7003;57106;51.446;-2.606;2022-12-07T09:17:55;24;24;
69350;PMS7003;57106;51.446;-2.606;2022-12-07T09:20:21;32;26;
69350;PMS7003;57106;51.446;-2.606;2022-12-07T09:22:46;25;21;
69350;PMS7003;57106;51.446;-2.606;2022-12-07T09:25:12;25;23;
69350;PMS7003;57106;51.446;-2.606;2022-12-07T09:27:37;25;20;
69350;PMS7003;57106;51.446;-2.606;2022-12-07T09:30:03;32;29;
69350;PMS7003;57106;51.446;-2.606;2022-12-07T09:32:28;26;24;
69350;PMS7003;57106;51.446;-2.606;2022-12-07T09:34:53;28;24;
69350;PMS7003;57106;51.446;-2.606;2022-12-07T09:37:18;33;29;
69350;PMS7003;57106;51.446;-2.606;2022-12-07T09:39:43;28;27;
69350;PMS7003;57106;51.446;-2.606;2022-12-07T09:42:11;24;21;
69350;PMS7003;57106;51.446;-2.606;2022-12-07T09:44:35;27;24;
69350;PMS7003;57106;51.446;-2.606;2022-12-07T09:47:00;23;20;
69350;PMS7003;57106;51.446;-2.606;2022-12-07T09:49:27;28;24;
69350;PMS7003;57106;51.446;-2.606;2022-12-07T09:54:17;25;23;
69350;PMS7003;57106;51.446;-2.606;2022-12-07T09:56:42;25;22;
69350;PMS7003;57106;51.446;-2.606;2022-12-07T09:59:09;27;23;
69350;PMS7003;57106;51.446;-2.606;2022-12-07T10:01:34;27;24;
69350;PMS7003;57106;51.446;-2.606;2022-12-07T10:04:01;27;25;
69350;PMS7003;57106;51.446;-2.606;2022-12-07T10:06:25;22;21;
69350;PMS7003;57106;51.446;-2.606;2022-12-07T10:08:50;24;24;
69350;PMS7003;57106;51.446;-2.606;2022-12-07T10:13:41;28;24;
69350;PMS7003;57106;51.446;-2.606;2022-12-07T10:16:07;31;28;
69350;PMS7003;57106;51.446;-2.606;2022-12-07T10:18:33;34;28;
69350;PMS7003;57106;51.446;-2.606;2022-12-07T10:21:05;30;27;
69350;PMS7003;57106;51.446;-2.606;2022-12-07T10:23:23;30;26;
69350;PMS7003;57106;51.446;-2.606;2022-12-07T10:25:48;30;29;
69350;PMS7003;57106;51.446;-2.606;2022-12-07T10:28:14;33;32;
69350;PMS7003;57106;51.446;-2.606;2022-12-07T10:30:46;34;31;
69350;PMS7003;57106;51.446;-2.606;2022-12-07T10:33:08;30;27;
69350;PMS7003;57106;51.446;-2.606;2022-12-07T10:35:29;30;27;
69350;PMS7003;57106;51.446;-2.606;2022-12-07T10:37:55;28;26;
69350;PMS7003;57106;51.446;-2.606;2022-12-07T10:40:25;26;25;
69350;PMS7003;57106;51.446;-2.606;2022-12-07T10:42:46;30;30;
69350;PMS7003;57106;51.446;-2.606;2022-12-07T10:45:13;24;24;
69350;PMS7003;57106;51.446;-2.606;2022-12-07T10:47:38;28;25;
69350;PMS7003;57106;51.446;-2.606;2022-12-07T10:50:12;22;21;
69350;PMS7003;57106;51.446;-2.606;2022-12-07T10:52:33;21;21;
69350;PMS7003;57106;51.446;-2.606;2022-12-07T10:54:59;20;18;
69350;PMS7003;57106;51.446;-2.606;2022-12-07T10:57:24;28;21;
69350;PMS7003;57106;51.446;-2.606;2022-12-07T10:59:52;26;20;
69350;PMS7003;57106;51.446;-2.606;2022-12-07T11:02:18;22;21;
69350;PMS7003;57106;51.446;-2.606;2022-12-07T11:04:38;23;20;
69350;PMS7003;57106;51.446;-2.606;2022-12-07T11:07:05;17;16;
69350;PMS7003;57106;51.446;-2.606;2022-12-07T11:09:34;16;13;
69350;PMS7003;57106;51.446;-2.606;2022-12-07T11:11:54;12;11;
69350;PMS7003;57106;51.446;-2.606;2022-12-07T11:14:19;12;12;
69350;PMS7003;57106;51.446;-2.606;2022-12-07T11:16:49;13;13;
69350;PMS7003;57106;51.446;-2.606;2022-12-07T11:19:14;13;12;
69350;PMS7003;57106;51.446;-2.606;2022-12-07T11:21:37;23;15;
69350;PMS7003;57106;51.446;-2.606;2022-12-07T11:24:03;14;12;
69350;PMS7003;57106;51.446;-2.606;2022-12-07T11:26:33;14;14;
69350;PMS7003;57106;51.446;-2.606;2022-12-07T11:28:58;11;11;
69350;PMS7003;57106;51.446;-2.606;2022-12-07T11:31:18;10;10;
69350;PMS7003;57106;51.446;-2.606;2022-12-07T11:33:44;13;12;
69350;PMS7003;57106;51.446;-2.606;2022-12-07T11:36:11;12;10;
69350;PMS7003;57106;51.446;-2.606;2022-12-07T11:41:00;16;10;
69350;PMS7003;57106;51.446;-2.606;2022-12-07T11:45:53;10;8;
69350;PMS7003;57106;51.446;-2.606;2022-12-07T11:55:39;7;7;
69350;PMS7003;57106;51.446;-2.606;2022-12-07T11:58:02;10;10;
69350;PMS7003;57106;51.446;-2.606;2022-12-07T12:00:25;6;6;
69350;PMS7003;57106;51.446;-2.606;2022-12-07T12:02:52;8;8;
69350;PMS7003;57106;51.446;-2.606;2022-12-07T12:05:17;12;10;
69350;PMS7003;57106;51.446;-2.606;2022-12-07T12:07:43;11;10;
69350;PMS7003;57106;51.446;-2.606;2022-12-07T12:10:14;11;10;
69350;PMS7003;57106;51.446;-2.606;2022-12-07T12:12:39;8;8;
69350;PMS7003;57106;51.446;-2.606;2022-12-07T12:15:02;12;8;
69350;PMS7003;57106;51.446;-2.606;2022-12-07T12:17:31;11;10;
69350;PMS7003;57106;51.446;-2.606;2022-12-07T12:19:58;8;8;
69350;PMS7003;57106;51.446;-2.606;2022-12-07T12:22:17;12;9;
69350;PMS7003;57106;51.446;-2.606;2022-12-07T12:24:42;8;8;
69350;PMS7003;57106;51.446;-2.606;2022-12-07T12:27:09;13;8;
69350;PMS7003;57106;51.446;-2.606;2022-12-07T12:29:35;11;9;
69350;PMS7003;57106;51.446;-2.606;2022-12-07T12:32:05;12;12;
69350;PMS7003;57106;51.446;-2.606;2022-12-07T12:34:31;8;7;
69350;PMS7003;57106;51.446;-2.606;2022-12-07T12:36:50;8;8;
69350;PMS7003;57106;51.446;-2.606;2022-12-07T12:39:16;15;9;
69350;PMS7003;57106;51.446;-2.606;2022-12-07T12:46:38;9;8;
69350;PMS7003;57106;51.446;-2.606;2022-12-07T12:53:49;8;8;
69350;PMS7003;57106;51.446;-2.606;2022-12-07T12:56:25;9;9;
69350;PMS7003;57106;51.446;-2.606;2022-12-07T12:58:41;17;14;
69350;PMS7003;57106;51.446;-2.606;2022-12-07T13:03:31;13;12;
69350;PMS7003;57106;51.446;-2.606;2022-12-07T13:08:22;14;12;
69350;PMS7003;57106;51.446;-2.606;2022-12-07T13:10:48;13;13;
69350;PMS7003;57106;51.446;-2.606;2022-12-07T13:15:39;15;14;
69350;PMS7003;57106;51.446;-2.606;2022-12-07T13:22:57;13;13;
69350;PMS7003;57106;51.446;-2.606;2022-12-07T13:25:26;16;16;
69350;PMS7003;57106;51.446;-2.606;2022-12-07T13:27:50;19;15;
69350;PMS7003;57106;51.446;-2.606;2022-12-07T13:30:14;17;16;
69350;PMS7003;57106;51.446;-2.606;2022-12-07T13:32:38;19;17;
69350;PMS7003;57106;51.446;-2.606;2022-12-07T13:37:30;14;13;
69350;PMS7003;57106;51.446;-2.606;2022-12-07T13:39:56;13;12;
69350;PMS7003;57106;51.446;-2.606;2022-12-07T13:47:13;15;10;
69350;PMS7003;57106;51.446;-2.606;2022-12-07T13:52:12;8;7;
69350;PMS7003;57106;51.446;-2.606;2022-12-07T13:54:30;9;7;
69350;PMS7003;57106;51.446;-2.606;2022-12-07T13:56:54;13;8;
69350;PMS7003;57106;51.446;-2.606;2022-12-07T13:59:21;14;13;
69350;PMS7003;57106;51.446;-2.606;2022-12-07T14:01:47;13;10;
69350;PMS7003;57106;51.446;-2.606;2022-12-07T14:04:18;11;8;
69350;PMS7003;57106;51.446;-2.606;2022-12-07T14:06:37;9;7;
69350;PMS7003;57106;51.446;-2.606;2022-12-07T14:09:07;8;8;
69350;PMS7003;57106;51.446;-2.606;2022-12-07T14:11:28;9;8;
69350;PMS7003;57106;51.446;-2.606;2022-12-07T14:13:56;11;8;
69350;PMS7003;57106;51.446;-2.606;2022-12-07T14:16:23;7;7;
69350;PMS7003;57106;51.446;-2.606;2022-12-07T14:18:45;8;8;
69350;PMS7003;57106;51.446;-2.606;2022-12-07T14:21:14;9;9;
69350;PMS7003;57106;51.446;-2.606;2022-12-07T14:23:37;5;5;
69350;PMS7003;57106;51.446;-2.606;2022-12-07T14:26:07;6;5;
69350;PMS7003;57106;51.446;-2.606;2022-12-07T14:28:28;7;6;
69350;PMS7003;57106;51.446;-2.606;2022-12-07T14:30:53;7;4;
69350;PMS7003;57106;51.446;-2.606;2022-12-07T14:33:19;4;4;
69350;PMS7003;57106;51.446;-2.606;2022-12-07T14:35:45;4;4;
69350;PMS7003;57106;51.446;-2.606;2022-12-07T14:38:10;5;4;
69350;PMS7003;57106;51.446;-2.606;2022-12-07T14:40:36;7;7;
69350;PMS7003;57106;51.446;-2.606;2022-12-07T14:43:02;5;5;
69350;PMS7003;57106;51.446;-2.606;2022-12-07T14:45:28;4;4;
69350;PMS7003;57106;51.446;-2.606;2022-12-07T14:47:53;5;5;
69350;PMS7003;57106;51.446;-2.606;2022-12-07T14:50:19;7;4;
69350;PMS7003;57106;51.446;-2.606;2022-12-07T14:52:45;8;6;
69350;PMS7003;57106;51.446;-2.606;2022-12-07T14:55:13;5;4;
69350;PMS7003;57106;51.446;-2.606;2022-12-07T14:57:36;6;5;
69350;PMS7003;57106;51.446;-2.606;2022-12-07T15:02:27;5;5;
69350;PMS7003;57106;51.446;-2.606;2022-12-07T15:04:53;3;3;
69350;PMS7003;57106;51.446;-2.606;2022-12-07T15:07:19;5;4;
69350;PMS7003;57106;51.446;-2.606;2022-12-07T15:09:44;6;5;
69350;PMS7003;57106;51.446;-2.606;2022-12-07T15:12:10;3;3;
69350;PMS7003;57106;51.446;-2.606;2022-12-07T15:14:36;7;5;
69350;PMS7003;57106;51.446;-2.606;2022-12-07T15:17:02;8;7;
69350;PMS7003;57106;51.446;-2.606;2022-12-07T15:19:27;4;4;
69350;PMS7003;57106;51.446;-2.606;2022-12-07T15:21:53;5;5;
69350;PMS7003;57106;51.446;-2.606;2022-12-07T15:24:19;4;3;
69350;PMS7003;57106;51.446;-2.606;2022-12-07T15:26:44;7;6;
69350;PMS7003;57106;51.446;-2.606;2022-12-07T15:29:10;6;5;
69350;PMS7003;57106;51.446;-2.606;2022-12-07T15:31:36;3;3;
69350;PMS7003;57106;51.446;-2.606;2022-12-07T15:34:02;6;6;
69350;PMS7003;57106;51.446;-2.606;2022-12-07T15:36:28;6;6;
69350;PMS7003;57106;51.446;-2.606;2022-12-07T15:38:53;7;6;
69350;PMS7003;57106;51.446;-2.606;2022-12-07T15:41:19;9;6;
69350;PMS7003;57106;51.446;-2.606;2022-12-07T15:46:10;10;10;
69350;PMS7003;57106;51.446;-2.606;2022-12-07T15:48:36;9;7;
69350;PMS7003;57106;51.446;-2.606;2022-12-07T15:51:02;9;9;
69350;PMS7003;57106;51.446;-2.606;2022-12-07T15:53:27;10;10;
69350;PMS7003;57106;51.446;-2.606;2022-12-07T15:55:53;9;9;
69350;PMS7003;57106;51.446;-2.606;2022-12-07T15:58:19;9;9;
69350;PMS7003;57106;51.446;-2.606;2022-12-07T16:00:44;6;5;
69350;PMS7003;57106;51.446;-2.606;2022-12-07T16:03:10;13;10;
69350;PMS7003;57106;51.446;-2.606;2022-12-07T16:05:36;11;10;
69350;PMS7003;57106;51.446;-2.606;2022-12-07T16:08:02;6;5;
69350;PMS7003;57106;51.446;-2.606;2022-12-07T16:10:27;5;5;
69350;PMS7003;57106;51.446;-2.606;2022-12-07T16:12:53;6;5;
69350;PMS7003;57106;51.446;-2.606;2022-12-07T16:15:19;5;5;
69350;PMS7003;57106;51.446;-2.606;2022-12-07T16:20:10;11;10;
69350;PMS7003;57106;51.446;-2.606;2022-12-07T16:25:02;10;10;
69350;PMS7003;57106;51.446;-2.606;2022-12-07T16:32:18;17;17;
69350;PMS7003;57106;51.446;-2.606;2022-12-07T16:39:36;12;10;
69350;PMS7003;57106;51.446;-2.606;2022-12-07T16:42:02;13;9;
69350;PMS7003;57106;51.446;-2.606;2022-12-07T16:49:18;17;16;
69350;PMS7003;57106;51.446;-2.606;2022-12-07T16:51:44;11;11;
69350;PMS7003;57106;51.446;-2.606;2022-12-07T16:54:10;18;12;
69350;PMS7003;57106;51.446;-2.606;2022-12-07T17:01:26;16;14;
69350;PMS7003;57106;51.446;-2.606;2022-12-07T17:03:52;22;21;
69350;PMS7003;57106;51.446;-2.606;2022-12-07T17:06:19;18;17;
69350;PMS7003;57106;51.446;-2.606;2022-12-07T17:08:44;30;25;
69350;PMS7003;57106;51.446;-2.606;2022-12-07T17:11:09;33;28;
69350;PMS7003;57106;51.446;-2.606;2022-12-07T17:13:34;28;23;
69350;PMS7003;57106;51.446;-2.606;2022-12-07T17:16:01;46;42;
69350;PMS7003;57106;51.446;-2.606;2022-12-07T17:18:26;31;26;
69350;PMS7003;57106;51.446;-2.606;2022-12-07T17:20:51;30;25;
69350;PMS7003;57106;51.446;-2.606;2022-12-07T17:23:16;93;87;
69350;PMS7003;57106;51.446;-2.606;2022-12-07T17:25:41;218;196;
69350;PMS7003;57106;51.446;-2.606;2022-12-07T17:28:07;87;79;
69350;PMS7003;57106;51.446;-2.606;2022-12-07T17:30:32;19;17;
69350;PMS7003;57106;51.446;-2.606;2022-12-07T17:32:57;21;19;
69350;PMS7003;57106;51.446;-2.606;2022-12-07T17:35:23;15;15;
69350;PMS7003;57106;51.446;-2.606;2022-12-07T17:37:48;26;25;
69350;PMS7003;57106;51.446;-2.606;2022-12-07T17:40:14;24;24;
69350;PMS7003;57106;51.446;-2.606;2022-12-07T17:42:40;36;29;
69350;PMS7003;57106;51.446;-2.606;2022-12-07T17:45:07;30;29;
69350;PMS7003;57106;51.446;-2.606;2022-12-07T17:47:32;29;27;
69350;PMS7003;57106;51.446;-2.606;2022-12-07T17:49:57;25;23;
69350;PMS7003;57106;51.446;-2.606;2022-12-07T17:52:23;25;23;
69350;PMS7003;57106;51.446;-2.606;2022-12-07T17:54:48;28;25;
69350;PMS7003;57106;51.446;-2.606;2022-12-07T17:57:13;38;33;
69350;PMS7003;57106;51.446;-2.606;2022-12-07T17:59:39;42;37;
69350;PMS7003;57106;51.446;-2.606;2022-12-07T18:02:05;50;46;
69350;PMS7003;57106;51.446;-2.606;2022-12-07T18:04:31;53;44;
69350;PMS7003;57106;51.446;-2.606;2022-12-07T18:06:57;44;44;
69350;PMS7003;57106;51.446;-2.606;2022-12-07T18:09:22;61;51;
69350;PMS7003;57106;51.446;-2.606;2022-12-07T18:11:47;62;62;
69350;PMS7003;57106;51.446;-2.606;2022-12-07T18:14:12;50;45;
69350;PMS7003;57106;51.446;-2.606;2022-12-07T18:16:38;47;41;
69350;PMS7003;57106;51.446;-2.606;2022-12-07T18:19:04;31;29;